Time;durP1;ratioP1;P1;durP2;ratioP2;P2;SDS_P1;SDS_P2;PMS_P1;PMS_P2;Temp;Humidity;BMP_temperature;BMP_pressure;BME280_temperature;BME280_humidity;BME280_pressure;Samples;Min_cycle;Max_cycle;Signal;HPM_P1;HPM_P2
2022/01/11 00:02:08;;;;;;;159.10;78.25;;;-0.20;99.90;;;;;;5133866;27;20039;-79
2022/01/11 00:04:33;;;;;;;179.15;76.22;;;-0.20;99.90;;;;;;5133958;27;20039;-79
2022/01/11 00:07:01;;;;;;;164.15;76.80;;;-0.20;99.90;;;;;;5133559;27;20051;-80
2022/01/11 00:11:55;;;;;;;158.20;76.40;;;-0.20;99.90;;;;;;5133848;27;20491;-79
2022/01/11 00:14:21;;;;;;;143.63;73.72;;;-0.20;99.90;;;;;;5133635;27;20043;-79
2022/01/11 00:16:47;;;;;;;141.65;74.65;;;-0.20;99.90;;;;;;5133780;27;20051;-79
2022/01/11 00:19:14;;;;;;;176.15;78.40;;;-0.20;99.90;;;;;;5133244;27;20039;-79
2022/01/11 00:21:45;;;;;;;162.65;75.97;;;-0.20;99.90;;;;;;5133938;27;20035;-80
2022/01/11 00:24:33;;;;;;;150.52;74.82;;;-0.10;99.90;;;;;;5132464;27;20127;-79
2022/01/11 00:27:00;;;;;;;186.60;78.82;;;-0.10;99.90;;;;;;5113548;28;20043;-80
2022/01/11 00:29:27;;;;;;;217.52;85.90;;;-0.20;99.90;;;;;;5131233;27;20150;-79
2022/01/11 00:31:54;;;;;;;137.77;73.22;;;-0.20;99.90;;;;;;5133319;27;20122;-80
2022/01/11 00:34:22;;;;;;;250.88;89.05;;;-0.10;99.90;;;;;;5133322;27;20051;-79
2022/01/11 00:36:48;;;;;;;150.88;71.72;;;-0.20;99.90;;;;;;5133603;27;20070;-80
2022/01/11 00:39:14;;;;;;;136.05;68.03;;;-0.20;99.90;;;;;;5132888;27;20043;-79
2022/01/11 00:41:42;;;;;;;178.77;74.57;;;-0.20;99.90;;;;;;5132514;27;20053;-80
2022/01/11 00:44:09;;;;;;;132.63;67.20;;;-0.20;99.90;;;;;;5132332;27;20083;-73
2022/01/11 00:46:36;;;;;;;145.82;67.30;;;-0.10;99.90;;;;;;5133587;27;20054;-80
2022/01/11 00:49:02;;;;;;;211.90;77.38;;;-0.20;99.90;;;;;;5133445;27;20495;-80
2022/01/11 00:51:28;;;;;;;135.18;67.43;;;-0.30;99.90;;;;;;5132147;27;20114;-80
2022/01/11 00:53:55;;;;;;;165.25;70.75;;;-0.20;99.90;;;;;;5133289;27;20122;-80
2022/01/11 00:56:21;;;;;;;139.07;68.40;;;-0.30;99.90;;;;;;5132756;27;20039;-80
2022/01/11 00:58:47;;;;;;;165.80;72.28;;;-0.30;99.90;;;;;;5133283;27;20054;-80
2022/01/11 01:01:13;;;;;;;130.05;66.22;;;-0.30;99.90;;;;;;5132246;27;20114;-80
2022/01/11 01:03:39;;;;;;;140.52;67.32;;;-0.30;99.90;;;;;;5133512;27;20472;-80
2022/01/11 01:06:06;;;;;;;156.77;71.28;;;-0.30;99.90;;;;;;5133196;27;20099;-80
2022/01/11 01:08:31;;;;;;;124.65;63.70;;;-0.40;99.90;;;;;;5132904;27;20043;-80
2022/01/11 01:10:57;;;;;;;126.38;66.40;;;-0.30;99.90;;;;;;5131881;27;20046;-77
2022/01/11 01:13:26;;;;;;;128.48;65.82;;;-0.30;99.90;;;;;;5132244;27;20114;-80
2022/01/11 01:15:54;;;;;;;126.57;64.45;;;-0.30;99.90;;;;;;5132975;27;20039;-80
2022/01/11 01:18:23;;;;;;;108.00;61.20;;;-0.40;99.90;;;;;;5132311;27;20103;-80
2022/01/11 01:20:51;;;;;;;197.75;74.90;;;-0.30;99.90;;;;;;5133318;27;20380;-80
2022/01/11 01:23:17;;;;;;;110.22;62.42;;;-0.30;99.90;;;;;;5132318;27;20116;-79
2022/01/11 01:25:45;;;;;;;143.18;70.05;;;-0.30;99.90;;;;;;5132299;27;20395;-80
2022/01/11 01:28:12;;;;;;;143.77;65.18;;;-0.40;99.90;;;;;;5133060;27;20047;-80
2022/01/11 01:30:38;;;;;;;205.48;78.72;;;-0.40;99.90;;;;;;5133017;27;20047;-80
2022/01/11 01:33:04;;;;;;;114.88;64.65;;;-0.40;99.90;;;;;;5132935;27;20047;-80
2022/01/11 01:35:38;;;;;;;114.63;62.92;;;-0.30;99.90;;;;;;5131988;27;20051;-80
2022/01/11 01:38:04;;;;;;;118.57;65.47;;;-0.40;99.90;;;;;;5137043;27;20043;-80
2022/01/11 01:40:36;;;;;;;112.18;63.25;;;-0.30;99.90;;;;;;5136377;27;20096;-79
2022/01/11 01:43:04;;;;;;;114.80;62.45;;;-0.40;99.90;;;;;;5137430;27;20039;-80
2022/01/11 01:45:30;;;;;;;123.55;63.17;;;-0.40;99.90;;;;;;5135858;27;20031;-80
2022/01/11 01:47:58;;;;;;;162.02;70.10;;;-0.40;99.90;;;;;;5135908;27;20484;-80
2022/01/11 01:50:27;;;;;;;126.03;62.85;;;-0.40;99.90;;;;;;5135891;27;20070;-79
2022/01/11 01:52:56;;;;;;;156.20;67.97;;;-0.50;99.90;;;;;;5137014;27;20043;-80
2022/01/11 01:55:22;;;;;;;124.82;63.17;;;-0.50;99.90;;;;;;5135880;27;20058;-79
2022/01/11 01:57:49;;;;;;;104.30;63.42;;;-0.60;99.90;;;;;;5136385;27;20047;-80
2022/01/11 02:00:16;;;;;;;133.65;64.80;;;-0.60;99.90;;;;;;5136557;27;20054;-79
2022/01/11 02:02:42;;;;;;;160.30;70.65;;;-0.60;99.90;;;;;;5136361;27;20039;-79
2022/01/11 02:05:08;;;;;;;124.88;65.43;;;-0.60;99.90;;;;;;5136301;27;20043;-80
2022/01/11 02:07:34;;;;;;;161.55;69.90;;;-0.60;99.90;;;;;;5128945;27;20126;-79
2022/01/11 02:10:03;;;;;;;149.73;69.28;;;-0.60;99.90;;;;;;5136615;27;20043;-79
2022/01/11 02:12:29;;;;;;;133.82;68.13;;;-0.60;99.90;;;;;;5134700;27;20039;-79
2022/01/11 02:14:55;;;;;;;157.30;74.45;;;-0.60;99.90;;;;;;5136623;27;20384;-79
2022/01/11 02:17:21;;;;;;;157.85;72.97;;;-0.60;99.90;;;;;;5135337;27;20043;-73
2022/01/11 02:19:46;;;;;;;125.43;68.25;;;-0.60;99.90;;;;;;5136363;27;20545;-79
2022/01/11 02:22:12;;;;;;;129.88;66.30;;;-0.60;99.90;;;;;;5135865;27;20047;-80
2022/01/11 02:24:38;;;;;;;172.05;74.82;;;-0.70;99.90;;;;;;5134988;27;20100;-79
2022/01/11 02:27:04;;;;;;;220.77;78.28;;;-0.60;99.90;;;;;;5136138;27;20047;-79
2022/01/11 02:29:31;;;;;;;147.75;71.28;;;-0.60;99.90;;;;;;5135494;27;20043;-79
2022/01/11 02:31:57;;;;;;;129.55;68.68;;;-0.60;99.90;;;;;;5135461;27;20662;-79
2022/01/11 02:34:23;;;;;;;135.80;72.70;;;-0.60;99.90;;;;;;5135371;27;20043;-73
2022/01/11 02:36:48;;;;;;;125.75;70.25;;;-0.60;99.90;;;;;;5135899;27;20091;-80
2022/01/11 02:39:14;;;;;;;144.20;73.47;;;-0.60;99.90;;;;;;5135800;27;20519;-80
2022/01/11 02:41:51;;;;;;;170.18;79.65;;;-0.50;99.90;;;;;;5135258;27;20047;-79
2022/01/11 02:44:17;;;;;;;138.02;70.28;;;-0.50;99.90;;;;;;5135429;27;20095;-79
2022/01/11 02:46:43;;;;;;;158.75;72.50;;;-0.50;99.90;;;;;;5135036;27;20768;-79
2022/01/11 02:49:09;;;;;;;146.60;72.75;;;-0.50;99.90;;;;;;5134748;27;20043;-79
2022/01/11 02:51:34;;;;;;;143.60;69.80;;;-0.40;99.90;;;;;;5134906;27;20037;-79
2022/01/11 02:54:01;;;;;;;138.65;72.20;;;-0.50;99.90;;;;;;5134741;27;20047;-79
2022/01/11 02:56:27;;;;;;;164.88;71.53;;;-0.60;99.90;;;;;;5134948;27;20114;-73
2022/01/11 02:58:52;;;;;;;164.77;75.53;;;-0.50;99.90;;;;;;5134339;27;20039;-79
2022/01/11 03:01:18;;;;;;;136.82;69.45;;;-0.50;99.90;;;;;;5115284;28;20039;-79
2022/01/11 03:03:44;;;;;;;165.05;73.10;;;-0.50;99.90;;;;;;5134724;27;20061;-79
2022/01/11 03:06:10;;;;;;;187.57;75.28;;;-0.60;99.90;;;;;;5135320;27;20047;-79
2022/01/11 03:08:42;;;;;;;180.10;76.43;;;-0.50;99.90;;;;;;5134610;27;20046;-79
2022/01/11 03:11:11;;;;;;;139.27;69.82;;;-0.60;99.90;;;;;;5135557;27;20122;-79
2022/01/11 03:13:43;;;;;;;170.02;73.53;;;-0.60;99.90;;;;;;5133342;27;20095;-79
2022/01/11 03:16:10;;;;;;;162.85;75.82;;;-0.60;99.90;;;;;;5134874;27;20047;-79
2022/01/11 03:18:36;;;;;;;167.45;77.28;;;-0.60;99.90;;;;;;5133546;27;20496;-79
2022/01/11 03:21:02;;;;;;;138.43;73.57;;;-0.60;99.90;;;;;;5135285;27;20053;-79
2022/01/11 03:23:29;;;;;;;137.15;71.35;;;-0.60;99.90;;;;;;5134872;27;20051;-74
2022/01/11 03:25:55;;;;;;;147.02;73.97;;;-0.60;99.90;;;;;;5134691;27;20054;-79
2022/01/11 03:28:22;;;;;;;187.38;79.50;;;-0.60;99.90;;;;;;5134550;27;20054;-79
2022/01/11 03:30:49;;;;;;;139.73;72.75;;;-0.60;99.90;;;;;;5134444;27;20047;-79
2022/01/11 03:33:15;;;;;;;157.02;74.93;;;-0.70;99.90;;;;;;5134375;27;20277;-79
2022/01/11 03:35:42;;;;;;;244.25;92.25;;;-0.70;99.90;;;;;;5113458;27;20087;-79
2022/01/11 03:38:10;;;;;;;143.30;75.60;;;-0.70;99.90;;;;;;5129440;27;20080;-79
2022/01/11 03:40:36;;;;;;;163.30;80.60;;;-0.70;99.90;;;;;;5133993;27;20050;-78
2022/01/11 03:43:02;;;;;;;243.98;91.22;;;-0.70;99.90;;;;;;5134527;27;20039;-79
2022/01/11 03:45:28;;;;;;;146.10;77.85;;;-0.70;99.90;;;;;;5134781;27;20422;-79
2022/01/11 03:47:57;;;;;;;180.40;86.20;;;-0.70;99.90;;;;;;5133449;27;20046;-78
2022/01/11 03:50:23;;;;;;;206.68;90.20;;;-0.70;99.90;;;;;;5134057;27;20484;-79
2022/01/11 03:52:58;;;;;;;152.98;83.25;;;-0.70;99.90;;;;;;5133776;27;20043;-79
2022/01/11 03:55:43;;;;;;;247.73;100.15;;;-0.70;99.90;;;;;;5133383;27;20055;-79
2022/01/11 03:58:09;;;;;;;208.98;95.72;;;-0.70;99.90;;;;;;5134243;27;20104;-79
2022/01/11 04:00:35;;;;;;;175.05;86.95;;;-0.70;99.90;;;;;;5133563;27;20043;-72
2022/01/11 04:03:02;;;;;;;169.02;87.38;;;-0.60;99.90;;;;;;5133906;27;20495;-79
2022/01/11 04:05:27;;;;;;;250.18;95.78;;;-0.60;99.90;;;;;;5134554;27;20092;-79
2022/01/11 04:07:53;;;;;;;180.65;87.03;;;-0.60;99.90;;;;;;5133628;27;20042;-79
2022/01/11 04:10:19;;;;;;;147.98;83.32;;;-0.50;99.90;;;;;;5133951;27;20046;-79
2022/01/11 04:12:48;;;;;;;174.55;90.05;;;-0.60;99.90;;;;;;5133378;27;20476;-79
2022/01/11 04:15:13;;;;;;;189.02;92.18;;;-0.50;99.90;;;;;;5134342;27;20471;-79
2022/01/11 04:17:39;;;;;;;200.20;93.85;;;-0.50;99.90;;;;;;5132670;27;20031;-78
2022/01/11 04:20:06;;;;;;;196.77;92.90;;;-0.50;99.90;;;;;;5134174;27;20104;-79
2022/01/11 04:22:31;;;;;;;224.68;96.53;;;-0.50;99.90;;;;;;5133896;27;20388;-79
2022/01/11 04:24:57;;;;;;;221.68;97.50;;;-0.40;99.90;;;;;;5133254;27;20054;-79
2022/01/11 04:27:23;;;;;;;195.38;93.07;;;-0.40;99.90;;;;;;5148088;27;20042;-79
2022/01/11 04:29:48;;;;;;;212.95;93.10;;;-0.40;99.90;;;;;;5132694;27;20101;-79
2022/01/11 04:32:14;;;;;;;204.30;93.88;;;-0.40;99.90;;;;;;5133627;27;20039;-79
2022/01/11 04:34:40;;;;;;;229.32;98.00;;;-0.40;99.90;;;;;;5133624;27;20487;-72
2022/01/11 04:37:05;;;;;;;246.05;94.60;;;-0.40;99.90;;;;;;5132974;27;20134;-79
2022/01/11 04:39:32;;;;;;;217.15;92.63;;;-0.40;99.90;;;;;;5133399;27;20047;-79
2022/01/11 04:41:57;;;;;;;225.20;95.10;;;-0.40;99.90;;;;;;5132538;27;20509;-79
2022/01/11 04:44:23;;;;;;;219.32;92.68;;;-0.40;99.90;;;;;;5133445;27;20122;-79
2022/01/11 04:46:49;;;;;;;249.07;98.50;;;-0.40;99.90;;;;;;5131884;27;20038;-79
2022/01/11 04:49:15;;;;;;;209.13;89.28;;;-0.40;99.90;;;;;;5133720;27;20050;-79
2022/01/11 04:51:41;;;;;;;257.60;99.35;;;-0.40;99.90;;;;;;5132173;27;20082;-74
2022/01/11 04:54:07;;;;;;;208.18;91.97;;;-0.40;99.90;;;;;;5133108;27;20043;-78
2022/01/11 04:56:33;;;;;;;190.25;89.68;;;-0.40;99.90;;;;;;5133514;27;20143;-79
2022/01/11 04:58:58;;;;;;;218.73;92.55;;;-0.40;99.90;;;;;;5132661;27;20075;-79
2022/01/11 05:01:24;;;;;;;224.55;93.85;;;-0.40;99.90;;;;;;5132302;27;20035;-79
2022/01/11 05:03:50;;;;;;;285.67;102.72;;;-0.40;99.90;;;;;;5132278;27;20506;-79
2022/01/11 05:06:16;;;;;;;255.73;100.00;;;-0.40;99.90;;;;;;5133298;27;20050;-79
2022/01/11 05:08:45;;;;;;;232.75;96.95;;;-0.40;99.90;;;;;;5133542;27;20122;-79
2022/01/11 05:11:11;;;;;;;230.73;96.95;;;-0.40;99.90;;;;;;5132938;27;20082;-79
2022/01/11 05:13:37;;;;;;;223.52;95.22;;;-0.40;99.90;;;;;;5137475;27;20075;-79
2022/01/11 05:16:03;;;;;;;210.77;94.72;;;-0.40;99.90;;;;;;5136904;27;20050;-79
2022/01/11 05:18:30;;;;;;;239.65;100.30;;;-0.40;99.90;;;;;;5137860;27;20096;-80
2022/01/11 05:20:56;;;;;;;232.38;99.22;;;-0.30;99.90;;;;;;5136304;27;20522;-79
2022/01/11 05:23:22;;;;;;;256.33;101.30;;;-0.30;99.90;;;;;;5136273;27;20047;-83
2022/01/11 05:25:47;;;;;;;226.93;96.47;;;-0.30;99.90;;;;;;5135366;27;20047;-74
2022/01/11 05:28:13;;;;;;;238.73;100.63;;;-0.30;99.90;;;;;;5137133;27;20741;-81
2022/01/11 05:30:39;;;;;;;245.73;99.68;;;-0.20;99.90;;;;;;5136188;27;20050;-81
2022/01/11 05:33:05;;;;;;;231.63;99.57;;;-0.20;99.90;;;;;;5136830;27;20035;-80
2022/01/11 05:35:31;;;;;;;225.70;101.47;;;-0.30;99.90;;;;;;5136482;27;20043;-81
2022/01/11 05:37:57;;;;;;;229.43;102.25;;;-0.20;99.90;;;;;;5136305;27;20054;-81
2022/01/11 05:40:22;;;;;;;241.82;103.47;;;-0.20;99.90;;;;;;5136115;27;20043;-81
2022/01/11 05:42:50;;;;;;;211.43;97.13;;;-0.20;99.90;;;;;;5136676;27;20046;-73
2022/01/11 05:45:16;;;;;;;229.73;98.78;;;-0.20;99.90;;;;;;5136950;27;20066;-81
2022/01/11 05:47:42;;;;;;;236.00;101.20;;;-0.20;99.90;;;;;;5136871;27;20403;-81
2022/01/11 05:50:10;;;;;;;226.25;101.13;;;-0.20;99.90;;;;;;5136258;27;20047;-81
2022/01/11 05:52:38;;;;;;;240.25;101.55;;;-0.20;99.90;;;;;;5135742;27;20376;-81
2022/01/11 05:55:06;;;;;;;220.88;98.82;;;-0.20;99.90;;;;;;5135457;27;20388;-82
2022/01/11 05:57:32;;;;;;;234.73;100.82;;;-0.20;99.90;;;;;;5136924;27;20046;-82
2022/01/11 05:59:58;;;;;;;232.65;100.72;;;-0.20;99.90;;;;;;5136090;27;20118;-81
2022/01/11 06:02:23;;;;;;;212.23;97.20;;;-0.20;99.90;;;;;;5136878;27;20043;-82
2022/01/11 06:04:49;;;;;;;207.23;96.13;;;-0.20;99.90;;;;;;5136786;27;20383;-82
2022/01/11 06:07:15;;;;;;;208.57;97.80;;;-0.20;99.90;;;;;;5135342;27;20050;-82
2022/01/11 06:09:41;;;;;;;199.98;96.22;;;-0.10;99.90;;;;;;5136719;27;20044;-81
2022/01/11 06:12:08;;;;;;;188.80;91.10;;;-0.20;99.90;;;;;;5169193;27;20043;-82
2022/01/11 06:14:33;;;;;;;188.38;92.95;;;-0.20;99.90;;;;;;5136617;27;20035;-81
2022/01/11 06:16:59;;;;;;;196.63;91.43;;;-0.20;99.90;;;;;;5136019;27;20108;-81
2022/01/11 06:19:26;;;;;;;184.35;91.15;;;-0.30;99.90;;;;;;5136803;27;20050;-82
2022/01/11 06:21:52;;;;;;;177.32;90.38;;;-0.30;99.90;;;;;;5135706;27;20429;-81
2022/01/11 06:24:18;;;;;;;155.13;85.97;;;-0.30;99.90;;;;;;5135273;27;20043;-81
2022/01/11 06:26:43;;;;;;;165.48;87.38;;;-0.30;99.90;;;;;;5136576;27;20126;-82
2022/01/11 06:29:10;;;;;;;166.10;89.13;;;-0.30;99.90;;;;;;5135459;27;20047;-81
2022/01/11 06:31:35;;;;;;;161.40;85.68;;;-0.40;99.90;;;;;;5135812;27;20094;-82
2022/01/11 06:34:03;;;;;;;149.05;84.75;;;-0.40;99.90;;;;;;5135462;27;20503;-82
2022/01/11 06:36:29;;;;;;;138.05;82.55;;;-0.40;99.90;;;;;;5135098;27;20449;-82
2022/01/11 06:38:55;;;;;;;134.70;79.70;;;-0.40;99.90;;;;;;5135849;27;20497;-83
2022/01/11 06:41:20;;;;;;;127.10;78.43;;;-0.40;99.90;;;;;;5135815;27;20043;-82
2022/01/11 06:43:46;;;;;;;124.50;76.63;;;-0.50;99.90;;;;;;5135951;27;20054;-82
2022/01/11 06:46:12;;;;;;;119.40;74.03;;;-0.50;99.90;;;;;;5135444;27;20043;-82
2022/01/11 06:48:37;;;;;;;124.30;75.38;;;-0.50;99.90;;;;;;5135962;27;20035;-82
2022/01/11 06:51:03;;;;;;;121.97;74.28;;;-0.50;99.90;;;;;;5135205;27;20050;-82
2022/01/11 06:53:31;;;;;;;121.95;74.30;;;-0.50;99.90;;;;;;5135093;27;20114;-82
2022/01/11 06:55:56;;;;;;;125.57;75.22;;;-0.50;99.90;;;;;;5135551;27;20051;-82
2022/01/11 06:58:23;;;;;;;116.07;73.65;;;-0.50;99.90;;;;;;5135067;27;20450;-82
2022/01/11 07:00:49;;;;;;;112.25;71.97;;;-0.50;99.90;;;;;;5135679;27;20051;-83
2022/01/11 07:03:18;;;;;;;111.32;72.00;;;-0.60;99.90;;;;;;5134727;27;20042;-82
2022/01/11 07:05:44;;;;;;;113.38;70.57;;;-0.60;99.90;;;;;;5135212;27;20035;-82
2022/01/11 07:08:11;;;;;;;111.43;69.40;;;-0.50;99.90;;;;;;5135282;27;20066;-81
2022/01/11 07:10:37;;;;;;;111.35;71.28;;;-0.60;99.90;;;;;;5135700;27;20441;-82
2022/01/11 07:13:03;;;;;;;113.05;70.25;;;-0.60;99.90;;;;;;5168303;27;20049;-76
2022/01/11 07:15:30;;;;;;;110.53;68.78;;;-0.60;99.90;;;;;;5134579;27;20464;-82
2022/01/11 07:17:56;;;;;;;106.60;67.65;;;-0.60;99.90;;;;;;5135593;27;20046;-82
2022/01/11 07:20:22;;;;;;;103.63;67.38;;;-0.60;99.90;;;;;;5134751;27;20523;-82
2022/01/11 07:22:49;;;;;;;107.95;68.88;;;-0.60;99.90;;;;;;5135330;27;20086;-82
2022/01/11 07:25:14;;;;;;;111.22;69.45;;;-0.70;99.90;;;;;;5133996;27;20047;-82
2022/01/11 07:27:40;;;;;;;106.82;67.57;;;-0.50;99.90;;;;;;5134914;27;20050;-82
2022/01/11 07:30:08;;;;;;;111.78;68.43;;;-0.70;99.90;;;;;;5134272;27;20051;-81
2022/01/11 07:32:35;;;;;;;102.72;67.03;;;-0.70;99.90;;;;;;5134721;27;20035;-82
2022/01/11 07:35:02;;;;;;;105.53;66.85;;;-0.60;99.90;;;;;;5134492;27;20484;-83
2022/01/11 07:37:28;;;;;;;101.63;65.38;;;-0.60;99.90;;;;;;5134220;27;20120;-82
2022/01/11 07:39:53;;;;;;;98.32;66.03;;;-0.60;99.90;;;;;;5134678;27;20051;-82
2022/01/11 07:42:19;;;;;;;105.20;66.28;;;-0.60;99.90;;;;;;5133849;27;20043;-82
2022/01/11 07:44:48;;;;;;;104.63;67.78;;;-0.60;99.90;;;;;;5134914;27;20047;-82
2022/01/11 07:47:13;;;;;;;99.65;65.60;;;-0.60;99.90;;;;;;5134281;27;20047;-82
2022/01/11 07:49:39;;;;;;;98.05;63.55;;;-0.60;99.90;;;;;;5134807;27;20043;-82
2022/01/11 07:52:05;;;;;;;99.82;64.60;;;-0.60;99.90;;;;;;5133755;27;20391;-82
2022/01/11 07:54:31;;;;;;;93.63;61.65;;;-0.60;99.90;;;;;;5134004;27;20518;-82
2022/01/11 07:56:56;;;;;;;95.68;61.45;;;-0.60;99.90;;;;;;5134745;27;20130;-82
2022/01/11 07:59:22;;;;;;;94.45;63.83;;;-0.70;99.90;;;;;;5133765;27;20067;-82
2022/01/11 08:01:48;;;;;;;93.72;62.25;;;-0.60;99.90;;;;;;5134448;27;20042;-82
2022/01/11 08:04:14;;;;;;;89.57;61.80;;;-0.60;99.90;;;;;;5133431;27;20043;-81
2022/01/11 08:06:39;;;;;;;95.18;62.72;;;-0.60;99.90;;;;;;5134208;27;20043;-82
2022/01/11 08:09:07;;;;;;;94.45;61.53;;;-0.50;99.90;;;;;;5134291;27;20395;-83
2022/01/11 08:11:33;;;;;;;97.95;63.88;;;-0.50;99.90;;;;;;5133021;27;20043;-81
2022/01/11 08:13:59;;;;;;;94.63;63.65;;;-0.40;99.90;;;;;;5120193;27;20480;-83
2022/01/11 08:16:24;;;;;;;92.88;61.28;;;-0.40;99.90;;;;;;5133619;27;20043;-83
2022/01/11 08:18:50;;;;;;;86.18;59.92;;;-0.40;99.90;;;;;;5133905;27;20043;-83
2022/01/11 08:21:16;;;;;;;88.28;59.08;;;-0.30;99.90;;;;;;5133292;27;20126;-83
2022/01/11 08:23:41;;;;;;;85.65;58.92;;;-0.20;99.90;;;;;;5133935;27;20089;-83
2022/01/11 08:26:07;;;;;;;86.00;60.60;;;-0.20;99.90;;;;;;5134055;27;20099;-81
2022/01/11 08:28:33;;;;;;;82.55;56.30;;;-0.20;99.90;;;;;;5132654;27;20297;-82
2022/01/11 08:31:00;;;;;;;80.43;56.53;;;-0.10;99.90;;;;;;5134174;27;20043;-82
2022/01/11 08:33:26;;;;;;;84.50;56.20;;;0.00;99.90;;;;;;5131914;27;20155;-83
2022/01/11 08:35:53;;;;;;;74.20;54.60;;;0.00;99.90;;;;;;5133521;27;20125;-82
2022/01/11 08:38:18;;;;;;;71.85;52.38;;;0.10;99.90;;;;;;5133255;27;20503;-82
2022/01/11 08:40:45;;;;;;;72.05;51.42;;;0.10;99.90;;;;;;5133840;27;20089;-84
2022/01/11 08:43:11;;;;;;;69.75;50.42;;;0.10;99.90;;;;;;5133702;27;20476;-82
2022/01/11 08:45:37;;;;;;;65.40;48.63;;;0.20;99.90;;;;;;5132075;27;20084;-84
2022/01/11 08:48:04;;;;;;;63.55;46.35;;;0.20;99.90;;;;;;5133330;27;20105;-84
2022/01/11 08:50:30;;;;;;;63.17;47.30;;;0.30;99.90;;;;;;5132953;27;20541;-83
2022/01/11 08:52:57;;;;;;;64.03;46.35;;;0.30;99.90;;;;;;5133644;27;20039;-84
2022/01/11 08:55:23;;;;;;;61.05;47.10;;;0.30;99.90;;;;;;5132970;27;20096;-71
2022/01/11 08:57:49;;;;;;;57.70;43.50;;;0.40;99.90;;;;;;5132959;27;20500;-87
2022/01/11 09:00:18;;;;;;;54.58;41.35;;;0.40;99.90;;;;;;5132991;27;20045;-78
2022/01/11 09:02:50;;;;;;;52.28;41.65;;;0.50;99.90;;;;;;5133842;27;20099;-84
2022/01/11 09:05:17;;;;;;;53.58;41.22;;;0.50;99.90;;;;;;5133292;27;20500;-75
2022/01/11 09:07:43;;;;;;;51.80;39.63;;;0.60;99.90;;;;;;5133708;27;20043;-85
2022/01/11 09:10:10;;;;;;;50.42;38.40;;;0.60;99.90;;;;;;5132675;27;20044;-85
2022/01/11 09:12:35;;;;;;;47.42;34.97;;;0.70;99.90;;;;;;5131713;28;20043;-86
2022/01/11 09:15:04;;;;;;;45.00;33.30;;;0.70;99.90;;;;;;5125503;28;20078;-84
2022/01/11 09:17:30;;;;;;;43.00;30.77;;;0.80;99.90;;;;;;5127147;27;20051;-76
2022/01/11 09:19:55;;;;;;;43.88;30.58;;;0.80;99.90;;;;;;5154444;27;20066;-85
2022/01/11 09:22:21;;;;;;;45.30;31.50;;;0.90;99.90;;;;;;5128463;28;20044;-87
2022/01/11 09:24:47;;;;;;;39.97;28.67;;;0.90;99.90;;;;;;5129849;28;20088;-86
2022/01/11 09:27:14;;;;;;;36.58;27.83;;;1.00;99.90;;;;;;5129992;27;20462;-88
2022/01/11 09:29:41;;;;;;;38.22;27.33;;;1.00;99.90;;;;;;5128432;28;20051;-89
2022/01/11 09:32:08;;;;;;;37.53;27.67;;;1.00;99.90;;;;;;5129398;27;20146;-84
2022/01/11 09:34:37;;;;;;;34.65;26.67;;;1.00;99.90;;;;;;5129027;27;20078;-90
2022/01/11 09:37:03;;;;;;;37.17;26.60;;;1.00;99.90;;;;;;5130009;27;20480;-90
2022/01/11 09:39:29;;;;;;;38.08;27.33;;;1.00;99.90;;;;;;5129699;27;20061;-84
2022/01/11 09:41:58;;;;;;;34.58;26.17;;;1.00;99.90;;;;;;5129395;28;20488;-87
2022/01/11 09:44:24;;;;;;;34.92;25.70;;;1.00;99.90;;;;;;5129409;27;20396;-89
2022/01/11 09:46:50;;;;;;;35.92;25.88;;;1.10;99.90;;;;;;5131150;27;20039;-85
2022/01/11 09:49:16;;;;;;;35.67;25.77;;;1.10;99.90;;;;;;5129245;27;20039;-77
2022/01/11 09:51:42;;;;;;;36.13;25.85;;;1.20;99.90;;;;;;5122898;27;20039;-91
2022/01/11 09:54:08;;;;;;;38.42;27.52;;;1.20;99.90;;;;;;5129101;28;20031;-90
2022/01/11 09:56:38;;;;;;;37.25;26.85;;;1.20;99.90;;;;;;5129105;27;20043;-75
2022/01/11 09:59:07;;;;;;;35.45;26.67;;;1.20;99.90;;;;;;5130747;27;20392;-89
2022/01/11 10:01:35;;;;;;;37.97;26.30;;;1.30;99.90;;;;;;5131476;27;20035;-88
2022/01/11 10:04:06;;;;;;;35.53;26.35;;;1.30;99.90;;;;;;5131858;27;20099;-87
2022/01/11 10:06:33;;;;;;;33.97;25.30;;;1.30;99.90;;;;;;5131943;27;20077;-86
2022/01/11 10:09:16;;;;;;;36.47;26.08;;;1.40;99.90;;;;;;5126648;27;20051;-80
2022/01/11 10:11:51;;;;;;;36.70;25.98;;;1.40;99.90;;;;;;5133917;27;20047;-88
2022/01/11 10:14:27;;;;;;;35.53;25.40;;;1.40;99.90;;;;;;5130677;27;20051;-81
2022/01/11 10:17:16;;;;;;;33.90;25.58;;;1.40;99.90;;;;;;5130971;27;20445;-77
2022/01/11 10:20:05;;;;;;;31.85;24.17;;;1.50;99.90;;;;;;5122369;27;20051;-80
2022/01/11 10:22:31;;;;;;;33.35;24.17;;;1.50;99.90;;;;;;5125718;27;20035;-79
2022/01/11 10:24:58;;;;;;;34.60;23.40;;;1.50;99.90;;;;;;5130817;27;20103;-78
2022/01/11 10:27:28;;;;;;;31.65;23.02;;;1.50;99.90;;;;;;5132557;27;20059;-79
2022/01/11 10:30:04;;;;;;;33.78;24.40;;;1.50;99.90;;;;;;5132033;27;20039;-76
2022/01/11 10:32:37;;;;;;;33.05;23.98;;;1.50;99.90;;;;;;5131449;27;20070;-76
2022/01/11 10:35:05;;;;;;;32.50;23.33;;;1.50;99.90;;;;;;5132179;27;20086;-75
2022/01/11 10:37:38;;;;;;;28.77;22.55;;;1.40;99.90;;;;;;5130854;27;20081;-76
2022/01/11 10:40:04;;;;;;;34.22;24.08;;;1.60;99.90;;;;;;5127896;27;20504;-77
2022/01/11 10:42:33;;;;;;;32.22;22.67;;;1.60;99.90;;;;;;5131757;27;20119;-77
2022/01/11 10:45:10;;;;;;;32.92;23.58;;;1.60;99.90;;;;;;5132463;27;20051;-77
2022/01/11 10:47:48;;;;;;;31.70;23.73;;;1.60;99.90;;;;;;5127723;27;20112;-77
2022/01/11 10:50:28;;;;;;;33.17;23.63;;;1.60;99.90;;;;;;5133051;27;20043;-78
2022/01/11 10:52:56;;;;;;;31.75;23.05;;;1.70;99.90;;;;;;5132625;27;20079;-77
2022/01/11 10:55:25;;;;;;;33.75;23.60;;;1.70;99.90;;;;;;5128795;27;20071;-75
2022/01/11 10:57:54;;;;;;;31.88;22.33;;;1.70;99.90;;;;;;5132305;27;20055;-77
2022/01/11 11:00:23;;;;;;;35.10;23.67;;;1.70;99.90;;;;;;5132234;27;20039;-77
2022/01/11 11:03:10;;;;;;;29.90;22.15;;;1.70;99.90;;;;;;5131221;27;20453;-76
2022/01/11 11:05:36;;;;;;;32.03;23.33;;;1.70;99.90;;;;;;5127183;27;20464;-76
2022/01/11 11:08:08;;;;;;;31.83;22.20;;;1.70;99.90;;;;;;5131440;27;20090;-78
2022/01/11 11:10:42;;;;;;;31.65;22.73;;;1.70;99.90;;;;;;5119086;27;20056;-72
2022/01/11 11:13:10;;;;;;;32.92;22.75;;;1.70;99.90;;;;;;5112123;28;20059;-78
2022/01/11 11:15:40;;;;;;;33.05;23.23;;;1.70;99.90;;;;;;5111115;28;20040;-76
2022/01/11 11:18:20;;;;;;;33.30;22.92;;;1.70;99.90;;;;;;5111376;28;20101;-77
2022/01/11 11:20:46;;;;;;;31.08;23.20;;;1.70;99.90;;;;;;5119753;27;20057;-76
2022/01/11 11:23:12;;;;;;;36.10;23.77;;;1.80;99.90;;;;;;5131530;27;20051;-77
2022/01/11 11:25:40;;;;;;;33.97;22.55;;;1.80;99.90;;;;;;5131503;27;20044;-78
2022/01/11 11:28:06;;;;;;;33.60;24.42;;;1.70;99.90;;;;;;5131969;27;20050;-76
2022/01/11 11:30:32;;;;;;;35.65;24.63;;;1.80;99.90;;;;;;5131316;27;20039;-78
2022/01/11 11:32:58;;;;;;;35.08;24.15;;;1.80;99.90;;;;;;5131606;27;20099;-78
2022/01/11 11:35:24;;;;;;;37.78;23.85;;;1.80;99.90;;;;;;5130667;27;20043;-77
2022/01/11 11:37:59;;;;;;;33.50;23.23;;;1.80;99.90;;;;;;5124530;27;20108;-77
2022/01/11 11:40:29;;;;;;;34.55;23.70;;;1.90;99.90;;;;;;5125690;27;20040;-78
2022/01/11 11:42:59;;;;;;;34.38;24.50;;;1.90;99.90;;;;;;5128128;27;20035;-73
2022/01/11 11:45:32;;;;;;;34.70;24.33;;;1.90;99.90;;;;;;5129720;27;20112;-78
2022/01/11 11:48:15;;;;;;;35.15;24.80;;;1.90;99.90;;;;;;5130130;27;20049;-78
2022/01/11 11:50:57;;;;;;;37.28;25.95;;;1.90;99.90;;;;;;5130101;27;20484;-79
2022/01/11 11:53:30;;;;;;;35.63;24.67;;;1.90;99.90;;;;;;5134383;27;20062;-79
2022/01/11 11:56:29;;;;;;;36.10;25.15;;;1.90;99.90;;;;;;5133816;27;20055;-78
2022/01/11 11:58:58;;;;;;;39.88;26.25;;;1.90;99.90;;;;;;5132578;27;20047;-78
2022/01/11 12:01:44;;;;;;;36.03;24.63;;;1.90;99.90;;;;;;5134235;27;20095;-78
2022/01/11 12:04:31;;;;;;;38.60;26.42;;;2.00;99.90;;;;;;5134292;27;20466;-78
2022/01/11 12:07:17;;;;;;;37.97;26.33;;;2.00;99.90;;;;;;5133447;27;20055;-79
2022/01/11 12:09:45;;;;;;;37.83;25.08;;;2.10;99.90;;;;;;5127663;27;20088;-77
2022/01/11 12:12:16;;;;;;;38.33;24.70;;;2.10;99.90;;;;;;5125245;27;20480;-78
2022/01/11 12:14:41;;;;;;;;;;;2.10;99.90;;;;;;5134298;27;20065;-79
2022/01/11 12:17:10;;;;;;;37.28;24.50;;;2.10;99.90;;;;;;5134537;27;19920;-79
2022/01/11 12:19:53;;;;;;;37.47;25.23;;;2.10;99.90;;;;;;5134374;27;20181;-79
2022/01/11 12:22:27;;;;;;;40.90;26.10;;;2.10;99.90;;;;;;5134405;27;20047;-78
2022/01/11 12:24:57;;;;;;;40.88;26.58;;;2.10;99.90;;;;;;5132156;27;20090;-78
2022/01/11 12:27:25;;;;;;;39.05;25.95;;;2.10;99.90;;;;;;5134479;27;20111;-78
2022/01/11 12:29:52;;;;;;;40.35;25.95;;;2.10;99.90;;;;;;5133833;27;20039;-78